Bangkok (Suvarnabhumi), Thailand

4:52 PM ICT on August 01, 2014 (GMT +0700)
Bangkok (Suvarnabhumi) (VTBS) Elev 7 ft | 13.36 °N, 100.98 °E | Change Station

Current weather conditions updated 22 minutes ago

Mostly Cloudy
Mostly Cloudy
90 °F
Feels Like 96 °F
N
10
Wind Variable Wind from SSW

Tomorrow is forecast to be Cooler than today. A few thunderstorms possible.

Today
High -- | Low -- °F
--% Chance of Precip.
Yesterday
High -- | Low -- °F
Precip. -- in
6:01 AM 6:43 PM
Waxing Crescent, 25% visible
Pressure 29.65 in
Visibility 6.2 miles
Clouds Few 2000 ft
Scattered Clouds 12000 ft
Mostly Cloudy 30000 ft
Heat Index 96 °F
Dew Point 72 °F
Humidity 55%
Rainfall 0.00 in
Snow Depth Not available.
UV 2 out of 12
Pollen Not available.
Air Quality Not available.
Flu Activity Not available.
METAR VTBS 010930Z 21009KT 170V250 9999 FEW020CB SCT120 BKN300 32/22 Q1004 NOSIG

More Conditions Fewer Conditions

Pressure 29.65 in
Visibility 6.2 miles
Clouds Few 2000 ft
Scattered Clouds 12000 ft
Mostly Cloudy 30000 ft
Heat Index 96 °F
Dew Point 72 °F
Humidity 55%
Rainfall 0.00 in
Snow Depth Not available.
UV 2 out of 12
Pollen Not available.
Air Quality Not available.
Flu Activity Not available.
METAR VTBS 010930Z 21009KT 170V250 9999 FEW020CB SCT120 BKN300 32/22 Q1004 NOSIG

More Conditions Fewer Conditions

10-Day Weather Forecast

Almanac

Astronomy

Aug. 01, 2014 Rise Set
Actual Time 6:01 AM ICT 6:43 PM ICT
Civil Twilight 5:38 AM ICT 7:06 PM ICT
Nautical Twilight 5:12 AM ICT 7:32 PM ICT
Astronomical Twilight 4:45 AM ICT 7:59 PM ICT
Moon 9:58 AM ICT 10:11 PM ICT
Length of Visible Light 13h 27m
Length of Day
12h 42m
Tomorrow will be 0m 32s shorter.
Waxing Crescent, 25% of the Moon is Illuminated
Today
Waxing Crescent
Aug 3
First Quarter
Aug 10
Full
Aug 17
Last Quarter
Aug 25
New

Yesterday's Extremes

Country Highs Country Lows

Community

WunderPhotos

Upload Photos

1,739,530 photos uploaded!

Nearby

Snow Depth

Not available.

Earthquake Activity

City Distance Mag. Time & Date
No recent earthquake activity has been reported nearby.
Minimum magnitude displayed is 2.5.

Coastal Water Temperatures

Place Temperature
No Stations Reporting

Nearby Weather Stations

There are no personal weather stations in this area.